createdAt,value
2018-11-28T00:00:52.663Z,19.57
2018-11-28T00:03:21.756Z,18.75
2018-11-28T00:05:50.181Z,19.20
2018-11-28T00:08:18.688Z,20.80
2018-11-28T00:10:47.131Z,19.60
2018-11-28T00:13:15.705Z,19.40
2018-11-28T00:15:44.275Z,20.03
2018-11-28T00:18:14.617Z,18.87
2018-11-28T00:20:44.297Z,20.00
2018-11-28T00:23:13.074Z,20.00
2018-11-28T00:25:41.725Z,21.30
2018-11-28T00:28:10.283Z,19.47
2018-11-28T00:30:39.693Z,20.00
2018-11-28T00:33:08.192Z,20.00
2018-11-28T00:35:36.709Z,19.48
2018-11-28T00:38:05.235Z,21.00
2018-11-28T00:40:33.730Z,23.13
2018-11-28T00:43:02.190Z,21.03
2018-11-28T00:45:30.664Z,20.20
2018-11-28T00:47:59.179Z,18.73
2018-11-28T00:50:28.025Z,18.27
2018-11-28T00:52:56.514Z,20.30
2018-11-28T00:55:25.003Z,20.60
2018-11-28T00:57:53.525Z,20.67
2018-11-28T01:00:23.467Z,19.50
2018-11-28T01:02:52.048Z,18.92
2018-11-28T01:05:20.604Z,18.77
2018-11-28T01:07:51.318Z,20.10
2018-11-28T01:10:20.957Z,19.10
2018-11-28T01:12:50.026Z,20.93
2018-11-28T01:15:19.035Z,20.93
2018-11-28T01:17:47.568Z,19.20
2018-11-28T01:20:17.013Z,18.90
2018-11-28T01:22:45.454Z,19.85
2018-11-28T01:25:16.087Z,19.50
2018-11-28T01:27:44.561Z,20.10
2018-11-28T01:30:14.031Z,19.42
2018-11-28T01:32:42.570Z,18.70
2018-11-28T01:35:11.989Z,19.97
2018-11-28T01:37:40.808Z,21.03
2018-11-28T01:40:14.199Z,20.80
2018-11-28T01:42:42.778Z,19.82
2018-11-28T01:45:13.709Z,20.77
2018-11-28T01:47:42.446Z,19.03
2018-11-28T01:50:12.070Z,21.15
2018-11-28T01:52:40.573Z,18.93
2018-11-28T01:55:11.194Z,20.13
2018-11-28T01:57:39.697Z,20.67
2018-11-28T02:00:24.039Z,19.03
2018-11-28T02:02:54.748Z,20.50
2018-11-28T02:05:23.311Z,20.30
2018-11-28T02:07:51.887Z,19.48
2018-11-28T02:10:20.453Z,22.27
2018-11-28T02:12:48.930Z,19.60
2018-11-28T02:15:20.430Z,20.47
2018-11-28T02:17:48.861Z,20.87
2018-11-28T02:20:17.942Z,20.57
2018-11-28T02:22:46.629Z,18.67
2018-11-28T02:25:16.947Z,20.70
2018-11-28T02:27:46.107Z,17.93
2018-11-28T02:30:16.327Z,19.60
2018-11-28T02:32:45.344Z,19.57
2018-11-28T02:35:14.725Z,18.60
2018-11-28T02:37:43.293Z,19.93
2018-11-28T02:40:12.754Z,19.53
2018-11-28T02:42:41.331Z,20.30
2018-11-28T02:45:12.286Z,19.25
2018-11-28T02:47:40.778Z,20.95
2018-11-28T02:50:09.435Z,19.20
2018-11-28T02:52:37.950Z,18.13
2018-11-28T02:55:10.312Z,20.23
2018-11-28T02:57:40.186Z,20.80
2018-11-28T03:00:12.957Z,20.07
2018-11-28T03:02:41.474Z,19.80
2018-11-28T03:05:11.172Z,20.27
2018-11-28T03:07:39.720Z,18.90
2018-11-28T03:10:15.826Z,20.30
2018-11-28T03:12:44.334Z,20.90
2018-11-28T03:15:15.163Z,19.90
2018-11-28T03:17:43.627Z,18.23
2018-11-28T03:20:12.675Z,21.00
2018-11-28T03:22:41.102Z,22.33
2018-11-28T03:25:10.840Z,20.33
2018-11-28T03:27:39.294Z,18.73
2018-11-28T03:30:10.970Z,18.60
2018-11-28T03:32:39.440Z,18.30
2018-11-28T03:35:09.674Z,19.03
2018-11-28T03:37:38.150Z,18.20
2018-11-28T03:40:06.904Z,19.27
2018-11-28T03:42:35.396Z,19.50
2018-11-28T03:45:04.191Z,19.60
2018-11-28T03:47:32.665Z,19.12
2018-11-28T03:50:01.148Z,19.07
2018-11-28T03:52:29.624Z,17.63
2018-11-28T03:54:58.130Z,19.47
2018-11-28T03:57:26.571Z,16.77
2018-11-28T03:59:54.961Z,17.97
2018-11-28T04:02:23.454Z,18.07
2018-11-28T04:04:51.992Z,19.43
2018-11-28T04:07:20.562Z,19.77
2018-11-28T04:09:49.107Z,21.00
2018-11-28T04:12:17.592Z,19.82
2018-11-28T04:14:46.046Z,21.60
2018-11-28T04:17:14.597Z,21.07
2018-11-28T04:19:43.050Z,24.43
2018-11-28T04:22:11.578Z,28.13
2018-11-28T04:24:40.022Z,34.87
2018-11-28T04:27:08.506Z,29.67
2018-11-28T04:29:36.998Z,24.52
2018-11-28T04:32:05.598Z,36.20
2018-11-28T04:34:34.031Z,40.20
2018-11-28T04:37:02.522Z,40.25
2018-11-28T04:39:30.998Z,40.10
2018-11-28T04:41:59.457Z,38.70
2018-11-28T04:44:28.026Z,35.90
2018-11-28T04:46:56.681Z,47.93
2018-11-28T04:49:25.151Z,36.60
2018-11-28T04:51:53.656Z,32.87
2018-11-28T04:54:22.077Z,29.15
2018-11-28T04:56:50.522Z,32.60
2018-11-28T04:59:25.563Z,36.37
2018-11-28T05:01:54.077Z,28.63
2018-11-28T05:04:22.538Z,24.87
2018-11-28T05:07:54.171Z,24.98
2018-11-28T05:10:24.686Z,23.30
2018-11-28T05:12:53.780Z,21.57
2018-11-28T05:15:23.333Z,21.93
2018-11-28T05:17:53.404Z,24.47
2018-11-28T05:20:23.720Z,22.60
2018-11-28T05:22:52.241Z,26.50
2018-11-28T05:25:24.593Z,26.07
2018-11-28T05:28:00.318Z,23.80
2018-11-28T05:30:30.682Z,23.03
2018-11-28T05:32:59.494Z,23.80
2018-11-28T05:35:29.792Z,27.10
2018-11-28T05:37:58.290Z,20.27
2018-11-28T05:40:27.421Z,22.27
2018-11-28T05:42:56.101Z,21.33
2018-11-28T05:45:24.718Z,20.90
2018-11-28T05:47:53.157Z,20.20
2018-11-28T05:50:22.490Z,21.40
2018-11-28T05:52:51.271Z,21.70
2018-11-28T05:55:21.768Z,20.08
2018-11-28T05:57:50.345Z,23.22
2018-11-28T06:00:30.420Z,22.73
2018-11-28T06:02:58.935Z,23.40
2018-11-28T06:05:28.787Z,21.70
2018-11-28T06:08:00.686Z,22.37
2018-11-28T06:10:32.026Z,20.93
2018-11-28T06:13:01.988Z,22.32
2018-11-28T06:15:30.710Z,22.17
2018-11-28T06:17:59.293Z,19.37
2018-11-28T06:20:30.630Z,21.85
2018-11-28T06:22:59.144Z,21.60
2018-11-28T06:25:27.684Z,20.37
2018-11-28T06:27:56.167Z,20.17
2018-11-28T06:30:24.597Z,19.55
2018-11-28T06:32:53.063Z,21.73
2018-11-28T06:35:21.593Z,22.30
2018-11-28T06:37:56.433Z,20.77
2018-11-28T06:40:24.836Z,24.23
2018-11-28T06:42:53.305Z,24.40
2018-11-28T06:45:22.505Z,21.27
2018-11-28T06:47:50.954Z,24.90
2018-11-28T06:50:19.987Z,23.10
2018-11-28T06:52:49.639Z,23.90
2018-11-28T06:55:20.218Z,20.57
2018-11-28T06:57:48.806Z,21.52
2018-11-28T07:00:18.298Z,20.48
2018-11-28T07:02:47.160Z,20.60
2018-11-28T07:05:15.613Z,21.33
2018-11-28T07:07:44.094Z,20.37
2018-11-28T07:10:15.484Z,20.47
2018-11-28T07:12:43.854Z,19.97
2018-11-28T07:15:14.214Z,19.07
2018-11-28T07:17:43.042Z,22.10
2018-11-28T07:20:13.783Z,23.20
2018-11-28T07:22:42.673Z,29.50
2018-11-28T07:25:13.972Z,23.83
2018-11-28T07:27:45.314Z,22.05
2018-11-28T07:30:15.384Z,20.57
2018-11-28T07:32:43.895Z,20.13
2018-11-28T07:35:13.052Z,21.13
2018-11-28T07:37:41.454Z,18.93
2018-11-28T07:40:12.220Z,19.17
2018-11-28T07:42:41.320Z,19.67
2018-11-28T07:45:11.331Z,19.67
2018-11-28T07:47:39.778Z,21.80
2018-11-28T07:50:09.585Z,19.70
2018-11-28T07:52:38.231Z,17.43
2018-11-28T07:55:08.955Z,20.17
2018-11-28T07:57:37.447Z,20.97
2018-11-28T08:00:10.477Z,20.75
2018-11-28T08:02:38.986Z,19.07
2018-11-28T08:05:08.340Z,20.47
2018-11-28T08:07:36.793Z,21.40
2018-11-28T08:10:07.099Z,18.87
2018-11-28T08:12:35.561Z,20.27
2018-11-28T08:15:04.271Z,19.80
2018-11-28T08:17:32.692Z,21.82
2018-11-28T08:20:01.108Z,19.12
2018-11-28T08:22:29.629Z,18.92
2018-11-28T08:24:58.060Z,19.67
2018-11-28T08:27:26.507Z,18.87
2018-11-28T08:29:54.992Z,18.60
2018-11-28T08:32:23.394Z,18.33
2018-11-28T08:34:51.827Z,19.70
2018-11-28T08:37:20.240Z,20.10
2018-11-28T08:39:48.691Z,20.30
2018-11-28T08:42:17.099Z,18.57
2018-11-28T08:44:45.546Z,20.12
2018-11-28T08:47:14.003Z,19.63
2018-11-28T08:49:42.786Z,20.85
2018-11-28T08:52:11.188Z,19.07
2018-11-28T08:54:39.568Z,18.80
2018-11-28T08:57:08.065Z,20.07
2018-11-28T08:59:36.508Z,22.00
2018-11-28T09:02:04.982Z,18.63
2018-11-28T09:04:33.756Z,18.60
2018-11-28T09:07:02.202Z,20.57
2018-11-28T09:09:30.635Z,21.90
2018-11-28T09:11:59.046Z,20.67
2018-11-28T09:14:27.483Z,23.00
2018-11-28T09:16:55.867Z,20.73
2018-11-28T09:19:24.288Z,21.60
2018-11-28T09:21:52.698Z,21.10
2018-11-28T09:24:21.155Z,22.33
2018-11-28T09:26:49.658Z,22.37
2018-11-28T09:29:18.110Z,20.70
2018-11-28T09:31:46.549Z,20.70
2018-11-28T09:34:14.969Z,22.53
2018-11-28T09:36:43.403Z,20.70
2018-11-28T09:39:12.791Z,21.50
2018-11-28T09:41:41.257Z,21.27
2018-11-28T09:44:09.675Z,20.10
2018-11-28T09:46:38.141Z,20.20
2018-11-28T09:49:06.778Z,21.63
2018-11-28T09:51:35.201Z,21.60
2018-11-28T09:54:03.684Z,21.52
2018-11-28T09:56:32.129Z,20.73
2018-11-28T09:59:00.571Z,19.90
2018-11-28T10:01:29.233Z,20.03
2018-11-28T10:03:59.451Z,20.65
2018-11-28T10:06:27.838Z,19.53
2018-11-28T10:08:56.326Z,21.93
2018-11-28T10:11:25.036Z,20.80
2018-11-28T10:13:53.429Z,20.50
2018-11-28T10:16:21.878Z,21.57
2018-11-28T10:18:50.317Z,20.63
2018-11-28T10:21:18.718Z,20.30
2018-11-28T10:23:47.159Z,20.40
2018-11-28T10:26:15.640Z,20.77
2018-11-28T10:28:44.009Z,21.03
2018-11-28T10:31:12.439Z,23.03
2018-11-28T10:33:40.884Z,21.17
2018-11-28T10:36:09.307Z,22.73
2018-11-28T10:38:37.698Z,22.30
2018-11-28T10:41:08.423Z,21.97
2018-11-28T10:43:35.755Z,23.90
2018-11-28T10:46:04.308Z,22.15
2018-11-28T10:48:33.343Z,23.32
2018-11-28T10:51:02.420Z,23.00
2018-11-28T10:53:31.069Z,20.67
2018-11-28T10:55:59.627Z,21.55
2018-11-28T10:58:28.038Z,23.37
2018-11-28T11:01:01.709Z,21.60
2018-11-28T11:03:36.280Z,20.90
2018-11-28T11:06:11.592Z,20.82
2018-11-28T11:08:45.402Z,21.80
2018-11-28T11:11:19.267Z,19.40
2018-11-28T11:13:53.977Z,18.90
2018-11-28T11:16:28.093Z,19.93
2018-11-28T11:18:57.059Z,20.10
2018-11-28T11:21:26.681Z,21.20
2018-11-28T11:23:55.323Z,20.20
2018-11-28T11:26:23.810Z,19.75
2018-11-28T11:28:52.309Z,22.43
2018-11-28T11:31:20.942Z,19.60
2018-11-28T11:33:49.370Z,19.73
2018-11-28T11:36:20.037Z,19.90
2018-11-28T11:38:49.353Z,20.27
2018-11-28T11:41:18.761Z,19.40
2018-11-28T11:43:47.239Z,19.20
2018-11-28T11:46:15.791Z,18.77
2018-11-28T11:48:44.267Z,18.00
2018-11-28T11:51:12.656Z,18.55
2018-11-28T11:53:41.029Z,18.87
2018-11-28T11:56:09.418Z,18.30
2018-11-28T11:58:37.863Z,18.13
2018-11-28T12:01:06.956Z,18.20
2018-11-28T12:03:35.338Z,17.63
2018-11-28T12:06:03.750Z,18.87
2018-11-28T12:08:32.123Z,17.00
2018-11-28T12:11:00.499Z,15.70
2018-11-28T12:13:29.900Z,15.97
2018-11-28T12:15:59.199Z,15.17
2018-11-28T12:18:27.647Z,17.17
2018-11-28T12:21:04.572Z,16.67
2018-11-28T12:23:33.003Z,17.77
2018-11-28T12:26:01.469Z,16.75
2018-11-28T12:28:29.888Z,17.33
2018-11-28T12:30:58.305Z,17.30
2018-11-28T12:33:26.701Z,17.02
2018-11-28T12:35:55.153Z,18.13
2018-11-28T12:38:24.063Z,17.82
2018-11-28T12:40:52.831Z,18.30
2018-11-28T12:43:21.281Z,17.03
2018-11-28T12:45:50.658Z,17.32
2018-11-28T12:48:19.086Z,16.90
2018-11-28T12:50:48.421Z,18.77
2018-11-28T12:53:17.781Z,17.20
2018-11-28T12:55:46.282Z,16.30
2018-11-28T12:58:17.994Z,15.40
2018-11-28T13:00:46.593Z,17.37
2018-11-28T13:03:16.339Z,16.47
2018-11-28T13:05:44.718Z,18.87
2018-11-28T13:08:13.207Z,18.57
2018-11-28T13:10:42.031Z,17.20
2018-11-28T13:13:11.360Z,18.03
2018-11-28T13:15:39.944Z,16.33
2018-11-28T13:18:09.396Z,17.37
2018-11-28T13:20:38.287Z,18.70
2018-11-28T13:23:07.551Z,18.20
2018-11-28T13:25:36.002Z,19.53
2018-11-28T13:28:05.228Z,19.17
2018-11-28T13:30:34.308Z,17.07
2018-11-28T13:33:02.708Z,18.02
2018-11-28T13:35:31.190Z,17.23
2018-11-28T13:38:03.725Z,17.27
2018-11-28T13:40:32.216Z,17.10
2018-11-28T13:43:00.591Z,17.23
2018-11-28T13:45:31.470Z,17.82
2018-11-28T13:56:57.815Z,16.10
2018-11-28T13:58:59.534Z,17.27
2018-11-28T14:01:27.959Z,18.10
2018-11-28T14:03:56.393Z,19.43
2018-11-28T14:06:24.853Z,17.23
2018-11-28T14:08:53.900Z,16.93
2018-11-28T14:11:22.008Z,19.80
2018-11-28T14:13:50.443Z,17.17
2018-11-28T14:16:19.000Z,19.73
2018-11-28T14:18:47.383Z,18.23
2018-11-28T14:21:15.893Z,17.83
2018-11-28T14:23:44.974Z,18.43
2018-11-28T14:26:13.366Z,19.07
2018-11-28T14:28:41.838Z,17.57
2018-11-28T14:31:10.301Z,18.60
2018-11-28T14:33:38.797Z,17.85
2018-11-28T14:36:07.264Z,20.00
2018-11-28T14:38:35.695Z,20.37
2018-11-28T14:41:05.746Z,19.47
2018-11-28T14:43:34.126Z,18.50
2018-11-28T14:46:02.518Z,19.30
2018-11-28T14:48:30.959Z,19.02
2018-11-28T14:51:00.738Z,19.13
2018-11-28T14:53:29.211Z,18.53
2018-11-28T14:55:57.644Z,20.02
2018-11-28T14:58:26.358Z,19.13
2018-11-28T15:00:54.839Z,19.05
2018-11-28T15:03:23.329Z,17.83
2018-11-28T15:07:01.377Z,19.70
2018-11-28T15:09:42.114Z,18.17
2018-11-28T15:12:12.433Z,17.82
2018-11-28T15:14:40.919Z,16.90
2018-11-28T15:17:09.363Z,19.07
2018-11-28T15:19:37.845Z,20.67
2018-11-28T15:22:06.329Z,18.57
2018-11-28T15:24:35.706Z,17.57
2018-11-28T15:27:04.127Z,19.53
2018-11-28T15:29:33.151Z,17.97
2018-11-28T15:32:01.644Z,19.07
2018-11-28T15:34:30.130Z,17.50
2018-11-28T15:36:58.579Z,16.87
2018-11-28T15:39:27.027Z,18.10
2018-11-28T15:41:55.423Z,19.00
2018-11-28T15:44:23.863Z,18.30
2018-11-28T15:46:52.323Z,19.27
2018-11-28T15:49:20.766Z,18.80
2018-11-28T15:51:49.397Z,18.27
2018-11-28T15:54:17.919Z,17.00
2018-11-28T15:56:46.439Z,17.60
2018-11-28T15:59:14.958Z,19.10
2018-11-28T16:01:43.415Z,17.40
2018-11-28T16:04:11.870Z,20.17
2018-11-28T16:06:40.398Z,20.20
2018-11-28T16:09:13.523Z,19.80
2018-11-28T16:11:41.954Z,19.53
2018-11-28T16:14:10.439Z,17.93
2018-11-28T16:16:38.966Z,18.05
2018-11-28T16:19:07.498Z,18.82
2018-11-28T16:21:35.899Z,18.67
2018-11-28T16:24:04.389Z,20.05
2018-11-28T16:26:32.953Z,17.03
2018-11-28T16:29:01.427Z,19.77
2018-11-28T16:31:29.938Z,18.27
2018-11-28T16:33:58.394Z,20.07
2018-11-28T16:36:26.870Z,20.93
2018-11-28T16:38:55.434Z,18.30
2018-11-28T16:41:23.922Z,18.67
2018-11-28T16:43:52.384Z,19.33
2018-11-28T16:46:20.830Z,18.80
2018-11-28T16:48:57.088Z,19.07
2018-11-28T16:51:25.626Z,20.40
2018-11-28T16:53:54.779Z,18.40
2018-11-28T16:56:23.240Z,20.03
2018-11-28T16:58:51.724Z,17.93
2018-11-28T17:01:20.211Z,20.50
2018-11-28T17:03:48.759Z,19.90
2018-11-28T17:06:17.127Z,19.10
2018-11-28T17:08:45.694Z,18.90
2018-11-28T17:11:14.215Z,17.27
2018-11-28T17:13:42.804Z,18.17
2018-11-28T17:16:11.310Z,18.93
2018-11-28T17:18:39.797Z,19.77
2018-11-28T17:21:08.271Z,18.17
2018-11-28T17:23:36.762Z,20.43
2018-11-28T17:26:05.506Z,19.87
2018-11-28T17:28:33.968Z,19.47
2018-11-28T17:31:02.472Z,17.83
2018-11-28T17:33:30.979Z,17.70
2018-11-28T17:35:59.428Z,18.97
2018-11-28T17:38:27.910Z,19.23
2018-11-28T17:40:56.425Z,18.55
2018-11-28T17:43:24.828Z,20.10
2018-11-28T17:45:53.483Z,20.10
2018-11-28T17:48:21.957Z,19.07
2018-11-28T17:50:50.545Z,18.57
2018-11-28T17:53:19.050Z,19.90
2018-11-28T17:55:49.114Z,18.60
2018-11-28T17:58:17.712Z,19.05
2018-11-28T18:00:52.782Z,17.00
2018-11-28T18:03:21.954Z,18.30
2018-11-28T18:05:50.434Z,18.23
2018-11-28T18:08:19.082Z,17.40
2018-11-28T18:10:47.615Z,18.45
2018-11-28T18:13:17.258Z,18.70
2018-11-28T18:15:49.524Z,17.23
2018-11-28T18:18:19.437Z,17.30
2018-11-28T18:20:50.364Z,17.43
2018-11-28T18:23:16.733Z,17.37
2018-11-28T18:25:46.366Z,18.25
2018-11-28T18:28:14.812Z,17.67
2018-11-28T18:30:43.354Z,17.20
2018-11-28T18:33:12.673Z,16.90
2018-11-28T18:35:41.428Z,16.27
2018-11-28T18:38:09.868Z,17.20
2018-11-28T18:40:38.364Z,17.40
2018-11-28T18:43:07.707Z,19.70
2018-11-28T18:45:38.124Z,18.13
2018-11-28T18:48:06.895Z,17.87
2018-11-28T18:50:35.493Z,19.17
2018-11-28T18:53:04.009Z,17.33
2018-11-28T18:55:32.471Z,17.67
2018-11-28T18:58:00.919Z,18.43
2018-11-28T19:00:29.514Z,17.73
2018-11-28T19:02:58.088Z,16.70
2018-11-28T19:05:26.567Z,19.17
2018-11-28T19:07:55.162Z,18.37
2018-11-28T19:10:26.529Z,16.90
2018-11-28T19:12:54.135Z,17.47
2018-11-28T19:15:24.780Z,18.77
2018-11-28T19:17:53.938Z,18.00
2018-11-28T19:20:23.190Z,18.90
2018-11-28T19:22:52.700Z,17.73
2018-11-28T19:25:22.536Z,20.17
2018-11-28T19:27:51.044Z,18.67
2018-11-28T19:30:37.210Z,18.47
2018-11-28T19:33:10.096Z,19.00
2018-11-28T19:35:38.738Z,18.98
2018-11-28T19:38:30.012Z,19.20
2018-11-28T19:41:11.250Z,22.57
2018-11-28T19:44:32.666Z,19.70
2018-11-28T19:47:52.343Z,19.07
2018-11-28T19:50:35.272Z,19.98
2018-11-28T19:53:03.838Z,20.40
2018-11-28T19:55:32.401Z,21.30
2018-11-28T19:58:02.055Z,21.10
2018-11-28T20:00:30.607Z,20.55
2018-11-28T20:03:00.095Z,21.80
2018-11-28T20:05:28.878Z,20.80
2018-11-28T20:07:57.837Z,21.03
2018-11-28T20:10:26.409Z,21.93
2018-11-28T20:12:55.250Z,21.80
2018-11-28T20:15:25.602Z,21.07
2018-11-28T20:17:54.551Z,20.90
2018-11-28T20:20:23.894Z,20.75
2018-11-28T20:22:52.422Z,20.37
2018-11-28T20:25:22.244Z,20.80
2018-11-28T20:27:55.909Z,22.73
2018-11-28T20:30:29.097Z,21.67
2018-11-28T20:32:57.688Z,20.82
2018-11-28T20:35:26.230Z,22.27
2018-11-28T20:37:54.769Z,23.60
2018-11-28T20:40:23.483Z,21.27
2018-11-28T20:42:53.351Z,22.87
2018-11-28T20:45:21.897Z,24.10
2018-11-28T20:47:50.917Z,22.53
2018-11-28T20:50:22.877Z,22.93
2018-11-28T20:52:58.063Z,24.23
2018-11-28T20:55:27.424Z,24.00
2018-11-28T20:57:56.673Z,24.97
2018-11-28T21:00:26.035Z,23.40
2018-11-28T21:02:54.806Z,23.30
2018-11-28T21:05:23.614Z,25.10
2018-11-28T21:07:52.444Z,24.30
2018-11-28T21:10:26.584Z,24.60
2018-11-28T21:12:55.507Z,22.67
2018-11-28T21:15:24.262Z,22.50
2018-11-28T21:17:53.087Z,22.77
2018-11-28T21:20:23.988Z,23.00
2018-11-28T21:23:00.446Z,20.70
2018-11-28T21:25:28.979Z,24.50
2018-11-28T21:27:57.773Z,22.98
2018-11-28T21:30:26.267Z,22.90
2018-11-28T21:32:55.179Z,21.30
2018-11-28T21:35:28.901Z,22.43
2018-11-28T21:37:59.838Z,23.40
2018-11-28T21:40:28.370Z,23.20
2018-11-28T21:43:00.410Z,21.97
2018-11-28T21:45:33.352Z,21.90
2018-11-28T21:48:01.985Z,24.20
2018-11-28T21:50:31.375Z,22.70
2018-11-28T21:53:04.879Z,23.17
2018-11-28T21:55:33.418Z,21.17
2018-11-28T21:58:02.045Z,22.53
2018-11-28T22:00:30.744Z,23.52
2018-11-28T22:02:59.194Z,23.43
2018-11-28T22:05:27.678Z,22.37
2018-11-28T22:08:05.149Z,22.23
2018-11-28T22:13:35.594Z,23.85
2018-11-28T22:16:16.511Z,23.10
2018-11-28T22:18:54.188Z,23.80
2018-11-28T22:21:34.205Z,24.53
2018-11-28T22:24:03.867Z,24.17
2018-11-28T22:26:32.420Z,23.80
2018-11-28T22:29:01.000Z,22.60
2018-11-28T22:31:29.896Z,24.87
2018-11-28T22:34:00.221Z,23.80
2018-11-28T22:36:28.772Z,25.05
2018-11-28T22:38:57.385Z,23.17
2018-11-28T22:41:40.574Z,22.22
2018-11-28T22:44:20.334Z,23.57
2018-11-28T22:49:35.969Z,25.70
2018-11-28T22:52:04.621Z,23.23
2018-11-28T22:54:33.723Z,22.90
2018-11-28T22:57:02.293Z,23.73
2018-11-28T22:59:30.848Z,23.90
2018-11-28T23:03:05.895Z,22.40
2018-11-28T23:05:37.518Z,23.37
2018-11-28T23:08:07.612Z,25.93
2018-11-28T23:10:36.737Z,23.53
2018-11-28T23:13:05.825Z,24.00
2018-11-28T23:15:34.590Z,23.10
2018-11-28T23:18:03.084Z,24.37
2018-11-28T23:20:31.611Z,25.33
2018-11-28T23:23:01.607Z,24.93
2018-11-28T23:25:31.374Z,23.55
2018-11-28T23:28:00.818Z,23.30
2018-11-28T23:30:29.508Z,22.32
2018-11-28T23:33:02.646Z,23.07
2018-11-28T23:35:31.618Z,21.13
2018-11-28T23:38:00.243Z,24.03
2018-11-28T23:40:28.746Z,26.20
2018-11-28T23:42:57.245Z,25.60
2018-11-28T23:45:26.422Z,24.43
2018-11-28T23:47:55.043Z,23.83
2018-11-28T23:50:27.011Z,23.73
2018-11-28T23:52:55.947Z,24.37
2018-11-28T23:55:25.593Z,22.37
2018-11-28T23:57:54.222Z,23.33
